createdAt,value
2019-02-19T00:00:56.159Z,76.00
2019-02-19T00:03:25.575Z,80.37
2019-02-19T00:05:54.911Z,61.27
2019-02-19T00:08:24.279Z,60.87
2019-02-19T00:10:53.657Z,57.77
2019-02-19T00:13:23.010Z,60.27
2019-02-19T00:15:52.555Z,59.80
2019-02-19T00:18:21.887Z,59.33
2019-02-19T00:20:51.262Z,62.63
2019-02-19T00:23:20.693Z,57.23
2019-02-19T00:25:50.095Z,55.77
2019-02-19T00:28:19.496Z,64.43
2019-02-19T00:30:48.832Z,61.40
2019-02-19T00:33:18.153Z,55.80
2019-02-19T00:35:47.487Z,59.73
2019-02-19T00:38:16.823Z,54.87
2019-02-19T00:40:46.170Z,60.43
2019-02-19T00:43:15.531Z,62.47
2019-02-19T00:45:44.871Z,63.00
2019-02-19T00:48:14.222Z,57.50
2019-02-19T00:50:43.641Z,66.50
2019-02-19T00:53:12.971Z,67.23
2019-02-19T00:55:42.317Z,68.80
2019-02-19T00:58:11.619Z,69.13
2019-02-19T01:00:40.956Z,62.20
2019-02-19T01:03:10.299Z,60.90
2019-02-19T01:05:39.653Z,53.20
2019-02-19T01:08:09.070Z,54.73
2019-02-19T01:10:38.519Z,52.30
2019-02-19T01:13:07.886Z,54.77
2019-02-19T01:15:37.235Z,55.00
2019-02-19T01:18:07.125Z,50.33
2019-02-19T01:20:36.473Z,47.37
2019-02-19T01:23:05.797Z,48.77
2019-02-19T01:25:35.118Z,43.63
2019-02-19T01:28:04.542Z,41.07
2019-02-19T01:30:33.962Z,38.53
2019-02-19T01:33:03.368Z,42.73
2019-02-19T01:35:32.792Z,39.97
2019-02-19T01:38:02.222Z,42.23
2019-02-19T01:40:31.564Z,43.20
2019-02-19T01:43:00.894Z,43.43
2019-02-19T01:45:34.137Z,45.73
2019-02-19T01:48:01.338Z,42.07
2019-02-19T01:50:30.707Z,42.23
2019-02-19T01:53:00.121Z,40.63
2019-02-19T01:55:29.466Z,43.43
2019-02-19T01:57:58.798Z,47.83
2019-02-19T02:00:28.271Z,37.67
2019-02-19T02:02:57.618Z,48.03
2019-02-19T02:05:27.047Z,47.47
2019-02-19T02:07:56.381Z,49.00
2019-02-19T02:10:25.715Z,49.57
2019-02-19T02:12:55.072Z,56.10
2019-02-19T02:15:24.457Z,67.53
2019-02-19T02:17:53.815Z,75.17
2019-02-19T02:20:23.151Z,67.70
2019-02-19T02:22:52.502Z,63.00
2019-02-19T02:25:21.851Z,59.13
2019-02-19T02:27:51.187Z,60.57
2019-02-19T02:30:20.551Z,58.03
2019-02-19T02:32:49.872Z,58.23
2019-02-19T02:35:19.197Z,57.87
2019-02-19T02:37:48.531Z,59.23
2019-02-19T02:40:17.891Z,62.30
2019-02-19T02:42:47.251Z,68.37
2019-02-19T02:45:16.587Z,73.30
2019-02-19T02:47:45.919Z,70.80
2019-02-19T02:50:15.269Z,72.57
2019-02-19T02:52:44.627Z,68.27
2019-02-19T02:55:13.964Z,67.17
2019-02-19T02:57:43.399Z,72.43
2019-02-19T03:00:13.272Z,62.30
2019-02-19T03:02:42.585Z,64.40
2019-02-19T03:05:11.906Z,76.50
2019-02-19T03:07:44.390Z,80.97
2019-02-19T03:10:13.712Z,66.23
2019-02-19T03:12:43.105Z,60.93
2019-02-19T03:15:12.925Z,72.23
2019-02-19T03:17:42.262Z,80.07
2019-02-19T03:20:11.706Z,90.63
2019-02-19T03:22:41.124Z,88.77
2019-02-19T03:25:10.547Z,103.33
2019-02-19T03:27:39.907Z,105.87
2019-02-19T03:30:10.954Z,102.13
2019-02-19T03:32:40.390Z,88.57
2019-02-19T03:35:09.773Z,96.73
2019-02-19T03:37:39.180Z,99.63
2019-02-19T03:40:08.898Z,96.33
2019-02-19T03:42:38.260Z,94.10
2019-02-19T03:45:09.144Z,99.23
2019-02-19T03:47:38.503Z,101.13
2019-02-19T03:50:07.927Z,97.60
2019-02-19T03:52:37.314Z,95.77
2019-02-19T03:55:06.707Z,102.43
2019-02-19T03:57:36.267Z,99.33
2019-02-19T04:00:05.877Z,97.13
2019-02-19T04:02:35.266Z,90.17
2019-02-19T04:05:04.587Z,81.77
2019-02-19T04:07:33.935Z,85.97
2019-02-19T04:10:03.386Z,87.67
2019-02-19T04:12:32.780Z,83.23
2019-02-19T04:15:02.113Z,80.17
2019-02-19T04:17:31.493Z,79.00
2019-02-19T04:20:00.884Z,67.03
2019-02-19T04:22:30.252Z,73.60
2019-02-19T04:24:59.603Z,67.13
2019-02-19T04:27:28.935Z,68.03
2019-02-19T04:29:58.302Z,70.87
2019-02-19T04:32:27.633Z,63.10
2019-02-19T04:34:56.976Z,68.90
2019-02-19T04:37:26.306Z,74.73
2019-02-19T04:39:55.639Z,67.63
2019-02-19T04:42:25.177Z,67.50
2019-02-19T04:44:54.513Z,60.37
2019-02-19T04:47:23.860Z,58.57
2019-02-19T04:49:53.202Z,67.87
2019-02-19T04:52:22.544Z,66.70
2019-02-19T04:54:51.879Z,66.17
2019-02-19T04:57:21.257Z,58.47
2019-02-19T04:59:50.679Z,61.10
2019-02-19T05:02:20.150Z,65.03
2019-02-19T05:04:49.586Z,64.33
2019-02-19T05:07:18.933Z,66.57
2019-02-19T05:09:48.735Z,63.37
2019-02-19T05:12:18.083Z,62.07
2019-02-19T05:14:47.438Z,59.30
2019-02-19T05:17:16.778Z,60.60
2019-02-19T05:19:46.125Z,57.70
2019-02-19T05:22:15.469Z,56.70
2019-02-19T05:24:44.841Z,54.57
2019-02-19T05:27:14.192Z,56.77
2019-02-19T05:29:43.552Z,53.80
2019-02-19T05:32:12.922Z,57.60
2019-02-19T05:34:42.317Z,49.77
2019-02-19T05:37:11.667Z,61.03
2019-02-19T05:39:41.017Z,52.40
2019-02-19T05:42:10.465Z,44.80
2019-02-19T05:44:39.788Z,43.10
2019-02-19T05:47:09.167Z,42.90
2019-02-19T05:49:38.507Z,43.23
2019-02-19T05:52:08.364Z,40.37
2019-02-19T05:54:37.718Z,43.63
2019-02-19T05:57:07.061Z,42.37
2019-02-19T05:59:36.380Z,45.30
2019-02-19T06:02:05.707Z,45.37
2019-02-19T06:04:35.092Z,42.10
2019-02-19T06:07:04.559Z,42.00
2019-02-19T06:09:33.930Z,44.10
2019-02-19T06:12:03.262Z,42.20
2019-02-19T06:14:32.607Z,45.80
2019-02-19T06:17:01.937Z,43.23
2019-02-19T06:19:31.247Z,46.33
2019-02-19T06:22:00.569Z,45.40
2019-02-19T06:24:29.886Z,47.07
2019-02-19T06:26:59.364Z,47.40
2019-02-19T06:29:28.731Z,50.03
2019-02-19T06:31:58.087Z,45.63
2019-02-19T06:34:27.474Z,46.60
2019-02-19T06:36:56.827Z,47.40
2019-02-19T06:39:26.192Z,47.03
2019-02-19T06:41:55.553Z,45.87
2019-02-19T06:44:24.942Z,47.10
2019-02-19T06:46:54.294Z,46.73
2019-02-19T06:49:23.774Z,46.57
2019-02-19T06:51:55.736Z,44.97
2019-02-19T06:54:25.047Z,50.60
2019-02-19T06:56:54.394Z,54.97
2019-02-19T06:59:23.845Z,52.67
2019-02-19T07:02:18.102Z,52.97
2019-02-19T07:04:51.345Z,53.30
2019-02-19T07:07:20.666Z,53.77
2019-02-19T07:09:50.010Z,52.33
2019-02-19T07:12:19.365Z,49.47
2019-02-19T07:14:48.721Z,49.67
2019-02-19T07:17:18.053Z,47.63
2019-02-19T07:19:47.671Z,47.77
2019-02-19T07:22:17.004Z,45.63
2019-02-19T07:24:46.375Z,44.63
2019-02-19T07:27:15.987Z,45.60
2019-02-19T07:29:45.336Z,46.33
2019-02-19T07:32:14.755Z,45.73
2019-02-19T07:34:44.453Z,46.47
2019-02-19T07:37:13.797Z,43.83
2019-02-19T07:39:43.126Z,48.00
2019-02-19T07:42:12.530Z,47.13
2019-02-19T07:44:41.870Z,46.63
2019-02-19T07:47:11.361Z,46.67
2019-02-19T07:49:40.786Z,46.87
2019-02-19T07:52:10.149Z,49.57
2019-02-19T07:54:39.512Z,49.83
2019-02-19T07:57:08.835Z,49.67
2019-02-19T07:59:38.139Z,51.67
2019-02-19T08:02:07.463Z,52.60
2019-02-19T08:04:36.771Z,55.33
2019-02-19T08:07:06.122Z,56.13
2019-02-19T08:09:35.483Z,57.10
2019-02-19T08:12:04.837Z,55.93
2019-02-19T08:14:34.165Z,59.80
2019-02-19T08:17:03.628Z,57.07
2019-02-19T08:19:32.991Z,57.13
2019-02-19T08:22:02.348Z,55.97
2019-02-19T08:24:31.755Z,57.93
2019-02-19T08:27:01.053Z,57.80
2019-02-19T08:29:30.501Z,58.83
2019-02-19T08:31:59.833Z,56.37
2019-02-19T08:34:29.162Z,54.87
2019-02-19T08:36:58.521Z,57.70
2019-02-19T08:39:27.972Z,60.53
2019-02-19T08:41:57.419Z,56.50
2019-02-19T08:44:26.854Z,54.30
2019-02-19T08:46:56.232Z,55.87
2019-02-19T08:49:25.657Z,53.07
2019-02-19T08:51:56.298Z,51.90
2019-02-19T08:54:25.822Z,49.97
2019-02-19T08:56:55.246Z,50.27
2019-02-19T08:59:24.578Z,53.23
2019-02-19T09:01:53.941Z,52.93
2019-02-19T09:04:23.302Z,51.83
2019-02-19T09:06:52.652Z,52.47
2019-02-19T09:09:22.031Z,51.73
2019-02-19T09:11:51.408Z,48.50
2019-02-19T09:14:20.814Z,48.03
2019-02-19T09:16:50.183Z,52.40
2019-02-19T09:19:19.517Z,51.07
2019-02-19T09:21:49.114Z,52.33
2019-02-19T09:24:18.624Z,50.30
2019-02-19T09:26:48.344Z,49.47
2019-02-19T09:29:17.849Z,48.07
2019-02-19T09:31:47.194Z,48.77
2019-02-19T09:34:16.531Z,48.67
2019-02-19T09:36:45.901Z,47.67
2019-02-19T09:39:15.383Z,49.33
2019-02-19T09:41:44.809Z,47.93
2019-02-19T09:44:14.180Z,47.70
2019-02-19T09:46:43.536Z,48.27
2019-02-19T09:49:12.888Z,47.53
2019-02-19T09:51:42.243Z,44.67
2019-02-19T09:54:11.741Z,45.80
2019-02-19T09:56:41.321Z,45.37
2019-02-19T09:59:10.698Z,44.57
2019-02-19T10:01:40.071Z,42.90
2019-02-19T10:04:09.727Z,42.17
2019-02-19T10:06:39.064Z,41.70
2019-02-19T10:09:09.504Z,41.30
2019-02-19T10:11:38.805Z,43.77
2019-02-19T10:14:08.144Z,42.80
2019-02-19T10:16:41.573Z,44.17
2019-02-19T10:19:08.552Z,41.27
2019-02-19T10:21:37.894Z,40.77
2019-02-19T10:24:07.219Z,41.63
2019-02-19T10:26:36.603Z,42.15
2019-02-19T10:29:05.963Z,38.40
2019-02-19T10:31:35.351Z,40.73
2019-02-19T10:34:04.723Z,41.53
2019-02-19T10:36:34.074Z,41.23
2019-02-19T10:39:04.829Z,43.30
2019-02-19T10:41:34.151Z,44.83
2019-02-19T10:44:03.481Z,44.65
2019-02-19T10:46:32.841Z,44.63
2019-02-19T10:49:02.216Z,44.10
2019-02-19T10:51:31.591Z,47.00
2019-02-19T10:54:00.962Z,46.90
2019-02-19T10:56:30.366Z,39.35
2019-02-19T10:58:59.738Z,36.33
2019-02-19T11:01:29.134Z,33.28
2019-02-19T11:03:58.520Z,27.48
2019-02-19T11:06:27.849Z,23.83
2019-02-19T11:08:57.252Z,23.77
2019-02-19T11:11:26.583Z,22.42
2019-02-19T11:13:55.972Z,21.48
2019-02-19T11:16:25.349Z,19.85
2019-02-19T11:18:54.710Z,20.00
2019-02-19T11:21:24.061Z,21.65
2019-02-19T11:23:53.463Z,18.50
2019-02-19T11:26:22.818Z,18.70
2019-02-19T11:28:52.166Z,21.45
2019-02-19T11:31:22.504Z,18.20
2019-02-19T11:33:51.853Z,17.62
2019-02-19T11:36:21.208Z,18.15
2019-02-19T11:38:50.953Z,16.27
2019-02-19T11:41:20.280Z,14.70
2019-02-19T11:43:49.668Z,15.63
2019-02-19T11:46:19.045Z,15.60
2019-02-19T11:48:48.424Z,14.70
2019-02-19T11:51:17.779Z,11.53
2019-02-19T11:53:47.109Z,12.55
2019-02-19T11:56:16.495Z,14.23
2019-02-19T11:58:45.821Z,10.65
2019-02-19T12:01:15.117Z,12.20
2019-02-19T12:03:44.469Z,11.43
2019-02-19T12:06:13.807Z,10.05
2019-02-19T12:08:43.177Z,10.60
2019-02-19T12:11:12.588Z,11.60
2019-02-19T12:13:41.995Z,13.35
2019-02-19T12:16:11.355Z,13.43
2019-02-19T12:18:46.267Z,12.03
2019-02-19T12:21:11.850Z,13.40
2019-02-19T12:23:41.157Z,14.38
2019-02-19T12:26:10.500Z,13.68
2019-02-19T12:28:39.910Z,15.18
2019-02-19T12:31:09.273Z,14.58
2019-02-19T12:33:38.599Z,14.53
2019-02-19T12:36:07.955Z,13.22
2019-02-19T12:38:37.331Z,13.28
2019-02-19T12:41:06.666Z,14.07
2019-02-19T12:43:36.054Z,12.13
2019-02-19T12:46:05.383Z,12.63
2019-02-19T12:48:34.728Z,12.50
2019-02-19T12:51:04.217Z,12.23
2019-02-19T12:53:33.575Z,13.90
2019-02-19T12:56:02.935Z,13.22
2019-02-19T12:58:32.274Z,12.37
2019-02-19T13:01:01.800Z,11.22
2019-02-19T13:03:31.151Z,11.35
2019-02-19T13:06:00.605Z,11.70
2019-02-19T13:08:30.015Z,11.28
2019-02-19T13:10:59.477Z,12.20
2019-02-19T13:13:28.848Z,11.55
2019-02-19T13:15:58.198Z,11.50
2019-02-19T13:18:28.545Z,12.83
2019-02-19T13:20:57.907Z,11.70
2019-02-19T13:23:27.537Z,13.10
2019-02-19T13:25:56.935Z,11.47
2019-02-19T13:28:26.291Z,11.77
2019-02-19T13:30:55.739Z,11.27
2019-02-19T13:33:25.073Z,12.20
2019-02-19T13:35:54.454Z,10.97
2019-02-19T13:38:23.899Z,10.83
2019-02-19T13:40:53.248Z,10.63
2019-02-19T13:43:22.681Z,10.30
2019-02-19T13:45:52.040Z,10.30
2019-02-19T13:48:21.449Z,10.40
2019-02-19T13:50:50.804Z,10.00
2019-02-19T13:53:44.947Z,10.27
2019-02-19T13:56:14.739Z,9.70
2019-02-19T13:58:44.093Z,8.90
2019-02-19T14:01:13.556Z,9.43
2019-02-19T14:03:42.877Z,8.53
2019-02-19T14:06:12.304Z,9.13
2019-02-19T14:08:41.660Z,8.37
2019-02-19T14:11:10.999Z,7.77
2019-02-19T14:13:44.006Z,7.50
2019-02-19T14:16:23.612Z,7.37
2019-02-19T14:18:54.730Z,8.93
2019-02-19T14:21:40.779Z,8.60
2019-02-19T14:24:32.389Z,7.83
2019-02-19T14:27:23.568Z,8.73
2019-02-19T14:30:11.850Z,7.63
2019-02-19T14:32:56.103Z,8.23
2019-02-19T14:35:42.939Z,8.20
2019-02-19T14:38:36.762Z,8.40
2019-02-19T14:41:23.911Z,7.80
2019-02-19T14:44:21.271Z,8.50
2019-02-19T14:47:24.718Z,8.07
2019-02-19T14:50:22.002Z,7.43
2019-02-19T14:53:13.893Z,7.37
2019-02-19T14:56:20.212Z,7.47
2019-02-19T14:59:14.626Z,7.63
2019-02-19T15:02:02.870Z,7.80
2019-02-19T15:05:00.493Z,7.93
2019-02-19T15:08:07.178Z,7.57
2019-02-19T15:10:55.441Z,8.27
2019-02-19T15:13:40.707Z,7.50
2019-02-19T15:16:34.762Z,8.53
2019-02-19T15:19:19.946Z,9.07
2019-02-19T15:22:09.995Z,9.30
2019-02-19T15:25:10.423Z,10.17
2019-02-19T15:28:08.022Z,11.47
2019-02-19T15:30:55.344Z,11.00
2019-02-19T15:33:47.802Z,11.17
2019-02-19T15:36:34.700Z,11.17
2019-02-19T15:39:25.992Z,12.77
2019-02-19T15:42:12.879Z,13.60
2019-02-19T15:44:58.970Z,14.03
2019-02-19T15:47:47.390Z,14.13
2019-02-19T15:50:41.756Z,15.97
2019-02-19T15:53:26.448Z,19.37
2019-02-19T15:56:17.648Z,18.20
2019-02-19T15:59:09.919Z,22.27
2019-02-19T16:01:58.239Z,23.33
2019-02-19T16:04:46.491Z,30.00
2019-02-19T16:07:35.230Z,34.40
2019-02-19T16:10:23.660Z,33.37
2019-02-19T16:12:58.406Z,38.97
2019-02-19T16:15:45.271Z,37.30
2019-02-19T16:18:36.561Z,41.67
2019-02-19T16:21:37.216Z,34.40
2019-02-19T16:24:24.193Z,23.50
2019-02-19T16:27:09.483Z,23.97
2019-02-19T16:29:50.249Z,29.77
2019-02-19T16:32:44.433Z,25.00
2019-02-19T16:35:32.730Z,21.83
2019-02-19T16:38:20.649Z,19.50
2019-02-19T16:41:27.208Z,19.53
2019-02-19T16:44:14.303Z,19.20
2019-02-19T16:47:05.333Z,20.50
2019-02-19T16:49:52.642Z,15.80
2019-02-19T16:52:47.174Z,16.07
2019-02-19T16:55:25.541Z,16.67
2019-02-19T16:58:01.182Z,15.57
2019-02-19T17:00:50.830Z,15.37
2019-02-19T17:03:57.546Z,15.87
2019-02-19T17:06:46.321Z,15.70
2019-02-19T17:09:32.222Z,13.50
2019-02-19T17:12:16.743Z,16.50
2019-02-19T17:15:04.429Z,35.60
2019-02-19T17:17:51.575Z,38.23
2019-02-19T17:20:54.987Z,35.17
2019-02-19T17:23:38.956Z,30.03
2019-02-19T17:26:19.098Z,29.23
2019-02-19T17:28:54.657Z,30.23
2019-02-19T17:31:51.983Z,29.63
2019-02-19T17:34:38.816Z,26.23
2019-02-19T17:37:30.035Z,26.37
2019-02-19T17:40:18.292Z,24.33
2019-02-19T17:42:58.928Z,22.00
2019-02-19T17:45:53.480Z,22.00
2019-02-19T17:48:40.418Z,25.97
2019-02-19T17:51:28.661Z,31.73
2019-02-19T17:54:09.581Z,29.10
2019-02-19T17:57:09.851Z,34.67
2019-02-19T17:59:57.531Z,34.53
2019-02-19T18:02:51.614Z,34.37
2019-02-19T18:05:33.505Z,36.90
2019-02-19T18:08:33.993Z,42.43
2019-02-19T18:11:20.231Z,49.53
2019-02-19T18:14:08.526Z,49.10
2019-02-19T18:16:49.861Z,49.77
2019-02-19T18:19:19.211Z,48.77
2019-02-19T18:21:48.582Z,46.07
2019-02-19T18:24:17.968Z,45.27
2019-02-19T18:26:47.414Z,41.43
2019-02-19T18:29:17.718Z,44.33
2019-02-19T18:31:47.124Z,45.53
2019-02-19T18:34:16.510Z,44.63
2019-02-19T18:36:46.239Z,41.77
2019-02-19T18:39:15.533Z,39.57
2019-02-19T18:41:44.852Z,45.47
2019-02-19T18:44:14.194Z,33.40
2019-02-19T18:46:43.521Z,42.43
2019-02-19T18:49:12.861Z,41.53
2019-02-19T18:51:42.228Z,44.90
2019-02-19T18:54:12.058Z,41.47
2019-02-19T18:56:41.599Z,46.57
2019-02-19T18:59:11.080Z,34.83
2019-02-19T19:01:40.469Z,34.03
2019-02-19T19:04:09.887Z,33.13
2019-02-19T19:06:41.034Z,41.77
2019-02-19T19:09:10.415Z,50.40
2019-02-19T19:11:39.776Z,48.53
2019-02-19T19:14:09.247Z,42.77
2019-02-19T19:16:38.832Z,37.70
2019-02-19T19:19:08.297Z,35.87
2019-02-19T19:21:37.667Z,34.93
2019-02-19T19:24:07.099Z,34.13
2019-02-19T19:26:36.487Z,26.10
2019-02-19T19:29:05.896Z,32.33
2019-02-19T19:31:35.301Z,32.67
2019-02-19T19:34:04.712Z,30.57
2019-02-19T19:36:35.923Z,26.27
2019-02-19T19:39:06.974Z,23.07
2019-02-19T19:41:36.295Z,22.23
2019-02-19T19:44:05.708Z,23.30
2019-02-19T19:46:35.056Z,21.43
2019-02-19T19:49:04.433Z,21.87
2019-02-19T19:51:33.760Z,21.93
2019-02-19T19:54:03.109Z,19.90
2019-02-19T19:56:32.443Z,20.30
2019-02-19T19:59:01.825Z,19.33
2019-02-19T20:01:31.182Z,20.17
2019-02-19T20:04:00.655Z,19.27
2019-02-19T20:06:30.010Z,20.03
2019-02-19T20:08:59.352Z,20.50
2019-02-19T20:11:28.719Z,18.07
2019-02-19T20:14:00.331Z,20.30
2019-02-19T20:16:29.735Z,18.40
2019-02-19T20:18:59.098Z,19.90
2019-02-19T20:21:28.560Z,20.17
2019-02-19T20:23:57.893Z,19.73
2019-02-19T20:26:27.223Z,21.23
2019-02-19T20:28:56.554Z,24.63
2019-02-19T20:31:26.043Z,21.77
2019-02-19T20:33:55.385Z,22.67
2019-02-19T20:36:24.731Z,21.43
2019-02-19T20:38:54.138Z,19.40
2019-02-19T20:41:23.616Z,18.27
2019-02-19T20:43:53.006Z,20.43
2019-02-19T20:46:24.375Z,20.03
2019-02-19T20:48:54.159Z,19.50
2019-02-19T20:51:23.605Z,18.57
2019-02-19T20:53:53.906Z,19.33
2019-02-19T20:56:23.120Z,20.60
2019-02-19T20:58:52.635Z,21.23
2019-02-19T21:01:22.075Z,20.20
2019-02-19T21:03:51.501Z,19.70
2019-02-19T21:06:20.911Z,20.47
2019-02-19T21:08:50.384Z,20.87
2019-02-19T21:11:19.774Z,20.37
2019-02-19T21:13:49.328Z,21.23
2019-02-19T21:16:18.788Z,20.37
2019-02-19T21:18:48.190Z,21.43
2019-02-19T21:21:17.604Z,21.50
2019-02-19T21:23:47.098Z,20.93
2019-02-19T21:26:16.532Z,21.47
2019-02-19T21:28:45.942Z,24.40
2019-02-19T21:31:15.422Z,23.40
2019-02-19T21:33:44.833Z,25.43
2019-02-19T21:36:14.424Z,27.67
2019-02-19T21:38:43.871Z,26.80
2019-02-19T21:41:13.326Z,26.37
2019-02-19T21:43:42.919Z,27.07
2019-02-19T21:46:12.373Z,27.47
2019-02-19T21:48:48.047Z,24.63
2019-02-19T21:51:12.967Z,24.60
2019-02-19T21:53:42.487Z,29.47
2019-02-19T21:56:11.863Z,30.40
2019-02-19T21:58:41.341Z,30.87
2019-02-19T22:01:10.828Z,32.90
2019-02-19T22:03:40.176Z,39.90
2019-02-19T22:06:09.620Z,40.57
2019-02-19T22:08:39.174Z,42.23
2019-02-19T22:11:08.616Z,36.50
2019-02-19T22:13:38.098Z,36.73
2019-02-19T22:16:07.874Z,41.50
2019-02-19T22:18:37.533Z,44.60
2019-02-19T22:21:15.275Z,38.63
2019-02-19T22:23:44.710Z,41.27
2019-02-19T22:26:14.231Z,40.33
2019-02-19T22:28:43.677Z,41.30
2019-02-19T22:31:13.847Z,39.57
2019-02-19T22:33:43.699Z,42.13
2019-02-19T22:36:13.119Z,42.83
2019-02-19T22:38:42.550Z,43.57
2019-02-19T22:41:11.963Z,42.97
2019-02-19T22:43:41.469Z,40.97
2019-02-19T22:46:10.963Z,43.50
2019-02-19T22:48:40.401Z,41.97
2019-02-19T22:51:09.775Z,30.97
2019-02-19T22:53:58.117Z,32.27
2019-02-19T22:56:33.413Z,35.77
2019-02-19T22:59:02.996Z,35.70
2019-02-19T23:01:41.696Z,34.37
2019-02-19T23:04:11.237Z,39.33
2019-02-19T23:06:40.669Z,47.47
2019-02-19T23:09:10.226Z,45.97
2019-02-19T23:11:39.595Z,44.73
2019-02-19T23:14:09.124Z,45.10
2019-02-19T23:16:38.628Z,47.43
2019-02-19T23:19:08.094Z,48.87
2019-02-19T23:21:37.528Z,50.37
2019-02-19T23:24:07.043Z,46.67
2019-02-19T23:26:36.407Z,49.83
2019-02-19T23:29:05.819Z,49.77
2019-02-19T23:31:35.371Z,49.23
2019-02-19T23:34:05.614Z,47.47
2019-02-19T23:36:45.503Z,46.40
2019-02-19T23:39:15.153Z,46.20
2019-02-19T23:41:44.578Z,46.27
2019-02-19T23:44:14.018Z,46.70
2019-02-19T23:46:44.078Z,48.40
2019-02-19T23:49:13.582Z,46.87
2019-02-19T23:51:42.922Z,49.00
2019-02-19T23:54:12.353Z,50.93
2019-02-19T23:56:41.778Z,51.73
2019-02-19T23:59:11.539Z,48.40
